Buchanan, MI

11:50 AM EST on December 27, 2014 (GMT -0500)
Bendix Woods County Park | Change Station
CLOSE
Current Station
Personal Weather Station
Location: New Carlisle, IN
Elevation: 835 ft
Nearby Weather Stations

Elev 835 ft 41.66 °N, 86.51 °W | Updated 18 seconds ago

Overcast
Overcast
45.5 °F
Feels Like 39 °F
N
13.0
Wind Variable Wind from SSW
Gusts 21.0 mph

Today
High -- | Low -- °F
--% Chance of Precip.
Yesterday
High -- | Low -- °F
Precip. -- in
8:12 AM 5:21 PM
Waxing Crescent, 38% visible
Pressure 30.01 in
Visibility 3.0 miles
Clouds Overcast 300 ft
Windchill 39 °F
Dew Point 46 °F
Humidity 100%
Rainfall 0.02 in
Snow Depth Not available.
UV 1 out of 12
Pollen .10 out of 12
Air Quality Not available.
Flu Activity Not available.
SPECI KSBN 271624Z 20013KT 3SM BR OVC003 08/07 A3001 RMK AO2 T00830072

More Conditions Fewer Conditions

Pressure 30.01 in
Visibility 3.0 miles
Clouds Overcast 300 ft
Windchill 39 °F
Dew Point 46 °F
Humidity 100%
Rainfall 0.02 in
Snow Depth Not available.
UV 1 out of 12
Pollen .10 out of 12
Air Quality Not available.
Flu Activity Not available.
SPECI KSBN 271624Z 20013KT 3SM BR OVC003 08/07 A3001 RMK AO2 T00830072

More Conditions Fewer Conditions

10-Day Weather Forecast

Almanac

Astronomy

Dec. 27, 2014 Rise Set
Actual Time
Civil Twilight
Nautical Twilight
Astronomical Twilight
Moon
Length of Visible Light
Length of Day
Tomorrow will be .
, % of the Moon is Illuminated

Today's Extremes

State Highs State Lows

Community

WunderPhotos

Upload Photos

1,780,958 photos uploaded!

WunderBlogs® & News

Nearby

Air Quality

  Air Quality AQ Index Pollutant
Not available.

Snow Depth

Station Depth Elevation

Earthquake Activity

City Distance Mag. Time & Date
Minimum magnitude displayed is 2.5.

Coastal Water Temperatures

Place Temperature

Nearby Weather Stations